sensor_id;sensor_type;location;lat;lon;timestamp;P1;durP1;ratioP1;P2;durP2;ratioP2
21326;SDS011;10822;51.532;6.770;2022-11-15T00:01:45;9.90;;;7.20;;
21326;SDS011;10822;51.532;6.770;2022-11-15T00:04:11;11.35;;;6.80;;
21326;SDS011;10822;51.532;6.770;2022-11-15T00:06:36;7.90;;;5.88;;
21326;SDS011;10822;51.532;6.770;2022-11-15T00:09:02;8.20;;;5.63;;
21326;SDS011;10822;51.532;6.770;2022-11-15T00:11:28;8.20;;;5.82;;
21326;SDS011;10822;51.532;6.770;2022-11-15T00:13:55;8.20;;;5.80;;
21326;SDS011;10822;51.532;6.770;2022-11-15T00:16:21;11.55;;;5.78;;
21326;SDS011;10822;51.532;6.770;2022-11-15T00:18:47;9.35;;;5.45;;
21326;SDS011;10822;51.532;6.770;2022-11-15T00:21:14;8.63;;;6.05;;
21326;SDS011;10822;51.532;6.770;2022-11-15T00:23:40;9.48;;;6.35;;
21326;SDS011;10822;51.532;6.770;2022-11-15T00:26:06;8.88;;;5.63;;
21326;SDS011;10822;51.532;6.770;2022-11-15T00:28:32;8.82;;;5.57;;
21326;SDS011;10822;51.532;6.770;2022-11-15T00:31:06;12.15;;;6.95;;
21326;SDS011;10822;51.532;6.770;2022-11-15T00:33:32;8.98;;;5.95;;
21326;SDS011;10822;51.532;6.770;2022-11-15T00:38:32;7.45;;;5.07;;
21326;SDS011;10822;51.532;6.770;2022-11-15T00:40:58;7.85;;;5.38;;
21326;SDS011;10822;51.532;6.770;2022-11-15T00:43:24;10.73;;;6.20;;
21326;SDS011;10822;51.532;6.770;2022-11-15T00:45:50;10.02;;;6.20;;
21326;SDS011;10822;51.532;6.770;2022-11-15T00:48:16;10.15;;;6.38;;
21326;SDS011;10822;51.532;6.770;2022-11-15T00:50:42;12.45;;;6.40;;
21326;SDS011;10822;51.532;6.770;2022-11-15T00:53:08;8.82;;;6.03;;
21326;SDS011;10822;51.532;6.770;2022-11-15T00:55:34;8.38;;;6.03;;
21326;SDS011;10822;51.532;6.770;2022-11-15T00:58:00;11.02;;;6.57;;
21326;SDS011;10822;51.532;6.770;2022-11-15T01:00:26;8.88;;;5.95;;
21326;SDS011;10822;51.532;6.770;2022-11-15T01:02:52;8.65;;;5.47;;
21326;SDS011;10822;51.532;6.770;2022-11-15T01:05:18;9.60;;;5.88;;
21326;SDS011;10822;51.532;6.770;2022-11-15T01:07:44;8.35;;;5.80;;
21326;SDS011;10822;51.532;6.770;2022-11-15T01:10:10;9.85;;;6.40;;
21326;SDS011;10822;51.532;6.770;2022-11-15T01:12:36;10.30;;;5.72;;
21326;SDS011;10822;51.532;6.770;2022-11-15T01:15:02;11.10;;;6.47;;
21326;SDS011;10822;51.532;6.770;2022-11-15T01:17:29;9.85;;;6.47;;
21326;SDS011;10822;51.532;6.770;2022-11-15T01:19:55;7.72;;;5.03;;
21326;SDS011;10822;51.532;6.770;2022-11-15T01:22:21;11.63;;;6.22;;
21326;SDS011;10822;51.532;6.770;2022-11-15T01:24:49;9.18;;;5.65;;
21326;SDS011;10822;51.532;6.770;2022-11-15T01:27:15;8.25;;;5.63;;
21326;SDS011;10822;51.532;6.770;2022-11-15T01:29:41;11.82;;;6.22;;
21326;SDS011;10822;51.532;6.770;2022-11-15T01:32:07;9.07;;;6.38;;
21326;SDS011;10822;51.532;6.770;2022-11-15T01:34:33;9.15;;;6.03;;
21326;SDS011;10822;51.532;6.770;2022-11-15T01:36:59;6.80;;;5.43;;
21326;SDS011;10822;51.532;6.770;2022-11-15T01:39:25;10.35;;;5.90;;
21326;SDS011;10822;51.532;6.770;2022-11-15T01:41:51;9.43;;;5.57;;
21326;SDS011;10822;51.532;6.770;2022-11-15T01:47:03;7.70;;;5.00;;
21326;SDS011;10822;51.532;6.770;2022-11-15T01:49:30;9.55;;;6.20;;
21326;SDS011;10822;51.532;6.770;2022-11-15T01:51:58;10.27;;;6.00;;
21326;SDS011;10822;51.532;6.770;2022-11-15T01:54:24;9.43;;;6.18;;
21326;SDS011;10822;51.532;6.770;2022-11-15T01:56:53;8.18;;;5.43;;
21326;SDS011;10822;51.532;6.770;2022-11-15T01:59:21;10.07;;;5.43;;
21326;SDS011;10822;51.532;6.770;2022-11-15T02:01:47;8.63;;;5.70;;
21326;SDS011;10822;51.532;6.770;2022-11-15T02:04:15;8.65;;;5.40;;
21326;SDS011;10822;51.532;6.770;2022-11-15T02:06:42;8.52;;;6.18;;
21326;SDS011;10822;51.532;6.770;2022-11-15T02:09:09;11.70;;;5.95;;
21326;SDS011;10822;51.532;6.770;2022-11-15T02:11:35;7.60;;;5.60;;
21326;SDS011;10822;51.532;6.770;2022-11-15T02:14:01;9.82;;;6.05;;
21326;SDS011;10822;51.532;6.770;2022-11-15T02:16:53;7.25;;;5.70;;
21326;SDS011;10822;51.532;6.770;2022-11-15T02:22:10;9.73;;;5.38;;
21326;SDS011;10822;51.532;6.770;2022-11-15T02:29:59;9.02;;;5.43;;
21326;SDS011;10822;51.532;6.770;2022-11-15T02:32:37;9.93;;;5.45;;
21326;SDS011;10822;51.532;6.770;2022-11-15T02:37:45;10.45;;;5.47;;
21326;SDS011;10822;51.532;6.770;2022-11-15T02:42:57;6.90;;;5.18;;
21326;SDS011;10822;51.532;6.770;2022-11-15T02:45:46;6.18;;;4.82;;
21326;SDS011;10822;51.532;6.770;2022-11-15T02:48:14;8.60;;;4.80;;
21326;SDS011;10822;51.532;6.770;2022-11-15T02:50:41;8.68;;;5.43;;
21326;SDS011;10822;51.532;6.770;2022-11-15T02:53:08;7.47;;;5.13;;
21326;SDS011;10822;51.532;6.770;2022-11-15T02:55:35;9.07;;;4.90;;
21326;SDS011;10822;51.532;6.770;2022-11-15T03:00:56;8.32;;;4.72;;
21326;SDS011;10822;51.532;6.770;2022-11-15T03:16:34;10.40;;;5.38;;
21326;SDS011;10822;51.532;6.770;2022-11-15T03:19:12;7.78;;;4.95;;
21326;SDS011;10822;51.532;6.770;2022-11-15T03:21:39;7.20;;;5.07;;
21326;SDS011;10822;51.532;6.770;2022-11-15T03:24:06;7.72;;;5.25;;
21326;SDS011;10822;51.532;6.770;2022-11-15T03:26:33;8.23;;;4.95;;
21326;SDS011;10822;51.532;6.770;2022-11-15T03:29:04;8.13;;;5.30;;
21326;SDS011;10822;51.532;6.770;2022-11-15T03:31:32;9.73;;;5.20;;
21326;SDS011;10822;51.532;6.770;2022-11-15T03:34:19;7.97;;;5.50;;
21326;SDS011;10822;51.532;6.770;2022-11-15T03:36:46;7.45;;;5.30;;
21326;SDS011;10822;51.532;6.770;2022-11-15T03:39:12;9.30;;;5.90;;
21326;SDS011;10822;51.532;6.770;2022-11-15T03:41:41;7.40;;;5.05;;
21326;SDS011;10822;51.532;6.770;2022-11-15T03:44:31;8.88;;;5.78;;
21326;SDS011;10822;51.532;6.770;2022-11-15T03:49:27;8.60;;;6.00;;
21326;SDS011;10822;51.532;6.770;2022-11-15T03:51:56;7.90;;;5.28;;
21326;SDS011;10822;51.532;6.770;2022-11-15T03:54:22;9.38;;;5.78;;
21326;SDS011;10822;51.532;6.770;2022-11-15T03:56:48;7.20;;;5.47;;
21326;SDS011;10822;51.532;6.770;2022-11-15T03:59:14;8.40;;;5.85;;
21326;SDS011;10822;51.532;6.770;2022-11-15T04:01:40;8.32;;;5.53;;
21326;SDS011;10822;51.532;6.770;2022-11-15T04:04:06;8.45;;;5.55;;
21326;SDS011;10822;51.532;6.770;2022-11-15T04:06:32;7.72;;;5.72;;
21326;SDS011;10822;51.532;6.770;2022-11-15T04:08:58;7.70;;;5.35;;
21326;SDS011;10822;51.532;6.770;2022-11-15T04:11:24;7.60;;;5.20;;
21326;SDS011;10822;51.532;6.770;2022-11-15T04:13:50;9.48;;;5.45;;
21326;SDS011;10822;51.532;6.770;2022-11-15T04:16:16;8.05;;;5.40;;
21326;SDS011;10822;51.532;6.770;2022-11-15T04:18:42;7.70;;;5.15;;
21326;SDS011;10822;51.532;6.770;2022-11-15T04:21:08;6.45;;;4.60;;
21326;SDS011;10822;51.532;6.770;2022-11-15T04:23:53;7.28;;;4.78;;
21326;SDS011;10822;51.532;6.770;2022-11-15T04:26:37;9.18;;;4.97;;
21326;SDS011;10822;51.532;6.770;2022-11-15T04:29:03;6.57;;;4.30;;
21326;SDS011;10822;51.532;6.770;2022-11-15T04:31:47;9.07;;;5.40;;
21326;SDS011;10822;51.532;6.770;2022-11-15T04:34:13;7.75;;;4.93;;
21326;SDS011;10822;51.532;6.770;2022-11-15T04:36:39;7.22;;;4.97;;
21326;SDS011;10822;51.532;6.770;2022-11-15T04:39:23;7.45;;;4.43;;
21326;SDS011;10822;51.532;6.770;2022-11-15T04:41:49;6.05;;;4.53;;
21326;SDS011;10822;51.532;6.770;2022-11-15T04:44:15;7.07;;;5.13;;
21326;SDS011;10822;51.532;6.770;2022-11-15T04:46:41;6.28;;;4.45;;
21326;SDS011;10822;51.532;6.770;2022-11-15T04:49:07;5.85;;;4.75;;
21326;SDS011;10822;51.532;6.770;2022-11-15T04:51:33;8.95;;;5.13;;
21326;SDS011;10822;51.532;6.770;2022-11-15T04:53:59;7.13;;;4.35;;
21326;SDS011;10822;51.532;6.770;2022-11-15T04:56:25;8.98;;;4.82;;
21326;SDS011;10822;51.532;6.770;2022-11-15T04:58:51;8.02;;;5.10;;
21326;SDS011;10822;51.532;6.770;2022-11-15T05:01:17;6.90;;;5.47;;
21326;SDS011;10822;51.532;6.770;2022-11-15T05:03:43;5.57;;;4.53;;
21326;SDS011;10822;51.532;6.770;2022-11-15T05:06:29;7.65;;;4.80;;
21326;SDS011;10822;51.532;6.770;2022-11-15T05:08:55;7.60;;;4.85;;
21326;SDS011;10822;51.532;6.770;2022-11-15T05:11:21;7.50;;;4.53;;
21326;SDS011;10822;51.532;6.770;2022-11-15T05:13:47;7.25;;;4.38;;
21326;SDS011;10822;51.532;6.770;2022-11-15T05:16:13;6.13;;;4.50;;
21326;SDS011;10822;51.532;6.770;2022-11-15T05:18:39;6.45;;;4.50;;
21326;SDS011;10822;51.532;6.770;2022-11-15T05:21:09;5.32;;;4.20;;
21326;SDS011;10822;51.532;6.770;2022-11-15T05:23:35;5.95;;;4.07;;
21326;SDS011;10822;51.532;6.770;2022-11-15T05:26:02;6.35;;;4.43;;
21326;SDS011;10822;51.532;6.770;2022-11-15T05:28:28;7.45;;;4.22;;
21326;SDS011;10822;51.532;6.770;2022-11-15T05:31:01;6.60;;;4.03;;
21326;SDS011;10822;51.532;6.770;2022-11-15T05:36:04;8.00;;;3.90;;
21326;SDS011;10822;51.532;6.770;2022-11-15T05:38:31;5.50;;;3.70;;
21326;SDS011;10822;51.532;6.770;2022-11-15T05:40:57;6.43;;;3.38;;
21326;SDS011;10822;51.532;6.770;2022-11-15T05:43:23;5.15;;;3.20;;
21326;SDS011;10822;51.532;6.770;2022-11-15T05:45:49;5.22;;;3.78;;
21326;SDS011;10822;51.532;6.770;2022-11-15T05:48:15;6.07;;;3.88;;
21326;SDS011;10822;51.532;6.770;2022-11-15T05:50:42;7.35;;;3.83;;
21326;SDS011;10822;51.532;6.770;2022-11-15T05:53:09;6.00;;;3.90;;
21326;SDS011;10822;51.532;6.770;2022-11-15T05:55:37;6.85;;;3.80;;
21326;SDS011;10822;51.532;6.770;2022-11-15T05:58:03;5.13;;;3.78;;
21326;SDS011;10822;51.532;6.770;2022-11-15T06:00:29;5.43;;;3.70;;
21326;SDS011;10822;51.532;6.770;2022-11-15T06:02:55;4.53;;;3.60;;
21326;SDS011;10822;51.532;6.770;2022-11-15T06:05:21;7.82;;;3.80;;
21326;SDS011;10822;51.532;6.770;2022-11-15T06:07:47;5.47;;;3.97;;
21326;SDS011;10822;51.532;6.770;2022-11-15T06:10:13;6.80;;;3.90;;
21326;SDS011;10822;51.532;6.770;2022-11-15T06:12:39;6.18;;;4.25;;
21326;SDS011;10822;51.532;6.770;2022-11-15T06:15:05;7.47;;;4.40;;
21326;SDS011;10822;51.532;6.770;2022-11-15T06:17:31;4.93;;;3.75;;
21326;SDS011;10822;51.532;6.770;2022-11-15T06:19:57;6.60;;;4.30;;
21326;SDS011;10822;51.532;6.770;2022-11-15T06:22:23;6.10;;;4.07;;
21326;SDS011;10822;51.532;6.770;2022-11-15T06:24:49;5.20;;;4.15;;
21326;SDS011;10822;51.532;6.770;2022-11-15T06:27:15;6.97;;;5.00;;
21326;SDS011;10822;51.532;6.770;2022-11-15T06:29:41;6.20;;;4.03;;
21326;SDS011;10822;51.532;6.770;2022-11-15T06:32:07;8.55;;;4.57;;
21326;SDS011;10822;51.532;6.770;2022-11-15T06:34:33;5.07;;;4.15;;
21326;SDS011;10822;51.532;6.770;2022-11-15T06:37:00;6.00;;;4.53;;
21326;SDS011;10822;51.532;6.770;2022-11-15T06:39:26;5.57;;;4.47;;
21326;SDS011;10822;51.532;6.770;2022-11-15T06:41:52;6.68;;;4.30;;
21326;SDS011;10822;51.532;6.770;2022-11-15T06:44:18;7.68;;;4.53;;
21326;SDS011;10822;51.532;6.770;2022-11-15T06:46:44;7.22;;;4.32;;
21326;SDS011;10822;51.532;6.770;2022-11-15T06:49:10;5.20;;;4.40;;
21326;SDS011;10822;51.532;6.770;2022-11-15T06:51:36;7.65;;;4.68;;
21326;SDS011;10822;51.532;6.770;2022-11-15T06:54:02;5.82;;;4.22;;
21326;SDS011;10822;51.532;6.770;2022-11-15T06:56:28;6.72;;;4.50;;
21326;SDS011;10822;51.532;6.770;2022-11-15T06:58:55;5.13;;;3.55;;
21326;SDS011;10822;51.532;6.770;2022-11-15T07:01:21;5.65;;;3.65;;
21326;SDS011;10822;51.532;6.770;2022-11-15T07:03:47;4.88;;;3.75;;
21326;SDS011;10822;51.532;6.770;2022-11-15T07:06:13;6.82;;;4.07;;
21326;SDS011;10822;51.532;6.770;2022-11-15T07:08:39;8.43;;;4.35;;
21326;SDS011;10822;51.532;6.770;2022-11-15T07:11:06;5.70;;;4.00;;
21326;SDS011;10822;51.532;6.770;2022-11-15T07:13:33;5.60;;;4.00;;
21326;SDS011;10822;51.532;6.770;2022-11-15T07:16:05;9.27;;;4.40;;
21326;SDS011;10822;51.532;6.770;2022-11-15T07:18:34;4.60;;;3.55;;
21326;SDS011;10822;51.532;6.770;2022-11-15T07:21:01;6.03;;;3.70;;
21326;SDS011;10822;51.532;6.770;2022-11-15T07:23:28;5.55;;;3.58;;
21326;SDS011;10822;51.532;6.770;2022-11-15T07:25:55;7.05;;;4.43;;
21326;SDS011;10822;51.532;6.770;2022-11-15T07:28:21;6.47;;;3.58;;
21326;SDS011;10822;51.532;6.770;2022-11-15T07:30:47;5.53;;;3.90;;
21326;SDS011;10822;51.532;6.770;2022-11-15T07:33:13;4.90;;;3.60;;
21326;SDS011;10822;51.532;6.770;2022-11-15T07:35:39;7.50;;;3.83;;
21326;SDS011;10822;51.532;6.770;2022-11-15T07:38:05;6.38;;;4.20;;
21326;SDS011;10822;51.532;6.770;2022-11-15T07:40:31;6.50;;;3.95;;
21326;SDS011;10822;51.532;6.770;2022-11-15T07:45:26;6.13;;;3.97;;
21326;SDS011;10822;51.532;6.770;2022-11-15T07:47:52;5.45;;;3.88;;
21326;SDS011;10822;51.532;6.770;2022-11-15T07:50:19;5.53;;;3.30;;
21326;SDS011;10822;51.532;6.770;2022-11-15T07:52:45;6.22;;;3.60;;
21326;SDS011;10822;51.532;6.770;2022-11-15T07:55:11;10.93;;;3.33;;
21326;SDS011;10822;51.532;6.770;2022-11-15T07:57:37;5.50;;;3.15;;
21326;SDS011;10822;51.532;6.770;2022-11-15T08:00:04;4.90;;;2.75;;
21326;SDS011;10822;51.532;6.770;2022-11-15T08:02:30;4.85;;;2.72;;
21326;SDS011;10822;51.532;6.770;2022-11-15T08:04:56;4.80;;;2.72;;
21326;SDS011;10822;51.532;6.770;2022-11-15T08:07:22;4.80;;;2.70;;
21326;SDS011;10822;51.532;6.770;2022-11-15T08:09:48;6.30;;;3.17;;
21326;SDS011;10822;51.532;6.770;2022-11-15T08:12:14;5.03;;;2.80;;
21326;SDS011;10822;51.532;6.770;2022-11-15T08:14:40;1.15;;;1.00;;
21326;SDS011;10822;51.532;6.770;2022-11-15T08:17:06;1.63;;;1.27;;
21326;SDS011;10822;51.532;6.770;2022-11-15T08:19:32;2.72;;;0.82;;
21326;SDS011;10822;51.532;6.770;2022-11-15T08:21:58;1.08;;;0.63;;
21326;SDS011;10822;51.532;6.770;2022-11-15T08:24:24;1.45;;;0.90;;
21326;SDS011;10822;51.532;6.770;2022-11-15T08:26:50;1.67;;;1.10;;
21326;SDS011;10822;51.532;6.770;2022-11-15T08:29:16;3.55;;;1.60;;
21326;SDS011;10822;51.532;6.770;2022-11-15T08:31:42;3.33;;;1.30;;
21326;SDS011;10822;51.532;6.770;2022-11-15T08:34:08;5.88;;;2.17;;
21326;SDS011;10822;51.532;6.770;2022-11-15T08:36:34;6.38;;;2.72;;
21326;SDS011;10822;51.532;6.770;2022-11-15T08:39:00;7.47;;;3.00;;
21326;SDS011;10822;51.532;6.770;2022-11-15T08:41:27;4.80;;;2.45;;
21326;SDS011;10822;51.532;6.770;2022-11-15T08:43:53;7.53;;;2.92;;
21326;SDS011;10822;51.532;6.770;2022-11-15T08:46:19;3.70;;;1.75;;
21326;SDS011;10822;51.532;6.770;2022-11-15T08:48:45;3.05;;;1.60;;
21326;SDS011;10822;51.532;6.770;2022-11-15T08:51:11;2.88;;;1.40;;
21326;SDS011;10822;51.532;6.770;2022-11-15T08:53:37;3.92;;;1.60;;
21326;SDS011;10822;51.532;6.770;2022-11-15T08:56:06;3.15;;;1.80;;
21326;SDS011;10822;51.532;6.770;2022-11-15T08:58:33;2.85;;;1.75;;
21326;SDS011;10822;51.532;6.770;2022-11-15T09:00:59;4.53;;;1.77;;
21326;SDS011;10822;51.532;6.770;2022-11-15T09:03:25;3.17;;;1.80;;
21326;SDS011;10822;51.532;6.770;2022-11-15T09:05:59;5.50;;;1.98;;
21326;SDS011;10822;51.532;6.770;2022-11-15T09:08:26;4.47;;;2.10;;
21326;SDS011;10822;51.532;6.770;2022-11-15T09:10:54;3.83;;;1.60;;
21326;SDS011;10822;51.532;6.770;2022-11-15T09:13:20;3.17;;;1.60;;
21326;SDS011;10822;51.532;6.770;2022-11-15T09:15:46;4.15;;;1.83;;
21326;SDS011;10822;51.532;6.770;2022-11-15T09:18:12;4.53;;;2.20;;
21326;SDS011;10822;51.532;6.770;2022-11-15T09:20:38;4.13;;;2.10;;
21326;SDS011;10822;51.532;6.770;2022-11-15T09:23:04;8.30;;;2.33;;
21326;SDS011;10822;51.532;6.770;2022-11-15T09:25:31;7.25;;;3.05;;
21326;SDS011;10822;51.532;6.770;2022-11-15T09:27:57;9.02;;;2.75;;
21326;SDS011;10822;51.532;6.770;2022-11-15T09:30:24;6.25;;;3.13;;
21326;SDS011;10822;51.532;6.770;2022-11-15T09:32:50;6.47;;;2.80;;
21326;SDS011;10822;51.532;6.770;2022-11-15T09:35:16;6.63;;;2.92;;
21326;SDS011;10822;51.532;6.770;2022-11-15T09:37:42;5.90;;;2.67;;
21326;SDS011;10822;51.532;6.770;2022-11-15T09:40:09;5.65;;;2.92;;
21326;SDS011;10822;51.532;6.770;2022-11-15T09:45:22;3.92;;;2.22;;
21326;SDS011;10822;51.532;6.770;2022-11-15T09:47:54;5.55;;;2.25;;
21326;SDS011;10822;51.532;6.770;2022-11-15T09:50:56;3.38;;;2.30;;
21326;SDS011;10822;51.532;6.770;2022-11-15T09:56:01;3.78;;;1.98;;
21326;SDS011;10822;51.532;6.770;2022-11-15T10:01:18;3.30;;;2.10;;
21326;SDS011;10822;51.532;6.770;2022-11-15T10:03:45;2.78;;;2.30;;
21326;SDS011;10822;51.532;6.770;2022-11-15T10:06:26;4.43;;;2.40;;
21326;SDS011;10822;51.532;6.770;2022-11-15T10:09:01;4.40;;;2.45;;
21326;SDS011;10822;51.532;6.770;2022-11-15T10:11:29;3.45;;;2.58;;
21326;SDS011;10822;51.532;6.770;2022-11-15T10:13:57;3.13;;;2.10;;
21326;SDS011;10822;51.532;6.770;2022-11-15T10:21:39;3.28;;;1.73;;
21326;SDS011;10822;51.532;6.770;2022-11-15T10:24:28;2.88;;;1.80;;
21326;SDS011;10822;51.532;6.770;2022-11-15T10:26:55;2.90;;;1.38;;
21326;SDS011;10822;51.532;6.770;2022-11-15T10:29:23;4.53;;;1.70;;
21326;SDS011;10822;51.532;6.770;2022-11-15T10:31:49;3.97;;;1.30;;
21326;SDS011;10822;51.532;6.770;2022-11-15T10:34:16;3.50;;;2.00;;
21326;SDS011;10822;51.532;6.770;2022-11-15T10:36:47;3.10;;;1.50;;
21326;SDS011;10822;51.532;6.770;2022-11-15T10:39:19;3.83;;;1.50;;
21326;SDS011;10822;51.532;6.770;2022-11-15T10:41:45;2.70;;;1.00;;
21326;SDS011;10822;51.532;6.770;2022-11-15T10:46:47;2.17;;;1.30;;
21326;SDS011;10822;51.532;6.770;2022-11-15T10:49:22;5.72;;;1.38;;
21326;SDS011;10822;51.532;6.770;2022-11-15T10:54:42;2.20;;;1.35;;
21326;SDS011;10822;51.532;6.770;2022-11-15T10:57:12;5.25;;;1.58;;
21326;SDS011;10822;51.532;6.770;2022-11-15T10:59:39;1.60;;;1.05;;
21326;SDS011;10822;51.532;6.770;2022-11-15T11:07:58;2.03;;;0.90;;
21326;SDS011;10822;51.532;6.770;2022-11-15T11:10:27;1.95;;;0.73;;
21326;SDS011;10822;51.532;6.770;2022-11-15T11:12:53;3.78;;;1.05;;
21326;SDS011;10822;51.532;6.770;2022-11-15T11:15:19;2.30;;;1.00;;
21326;SDS011;10822;51.532;6.770;2022-11-15T11:20:23;2.10;;;1.00;;
21326;SDS011;10822;51.532;6.770;2022-11-15T11:28:34;3.75;;;1.13;;
21326;SDS011;10822;51.532;6.770;2022-11-15T11:33:24;1.70;;;1.00;;
21326;SDS011;10822;51.532;6.770;2022-11-15T11:36:03;4.35;;;1.52;;
21326;SDS011;10822;51.532;6.770;2022-11-15T11:38:41;2.42;;;1.00;;
21326;SDS011;10822;51.532;6.770;2022-11-15T11:41:21;5.93;;;1.02;;
21326;SDS011;10822;51.532;6.770;2022-11-15T11:44:02;2.35;;;1.08;;
21326;SDS011;10822;51.532;6.770;2022-11-15T11:49:09;1.67;;;1.10;;
21326;SDS011;10822;51.532;6.770;2022-11-15T11:51:43;3.00;;;1.20;;
21326;SDS011;10822;51.532;6.770;2022-11-15T11:56:41;2.00;;;1.30;;
21326;SDS011;10822;51.532;6.770;2022-11-15T11:59:19;3.70;;;1.13;;
21326;SDS011;10822;51.532;6.770;2022-11-15T12:01:46;1.50;;;1.10;;
21326;SDS011;10822;51.532;6.770;2022-11-15T12:04:20;2.17;;;0.90;;
21326;SDS011;10822;51.532;6.770;2022-11-15T12:06:54;1.23;;;0.82;;
21326;SDS011;10822;51.532;6.770;2022-11-15T12:12:08;5.32;;;0.90;;
21326;SDS011;10822;51.532;6.770;2022-11-15T12:17:13;2.15;;;0.70;;
21326;SDS011;10822;51.532;6.770;2022-11-15T12:19:41;6.40;;;0.90;;
21326;SDS011;10822;51.532;6.770;2022-11-15T12:22:12;1.30;;;0.73;;
21326;SDS011;10822;51.532;6.770;2022-11-15T12:24:44;3.33;;;0.60;;
21326;SDS011;10822;51.532;6.770;2022-11-15T12:27:17;1.08;;;0.50;;
21326;SDS011;10822;51.532;6.770;2022-11-15T12:29:46;2.65;;;0.75;;
21326;SDS011;10822;51.532;6.770;2022-11-15T12:32:18;1.48;;;0.77;;
21326;SDS011;10822;51.532;6.770;2022-11-15T12:34:49;2.40;;;0.80;;
21326;SDS011;10822;51.532;6.770;2022-11-15T12:42:42;1.52;;;0.70;;
21326;SDS011;10822;51.532;6.770;2022-11-15T12:47:51;2.70;;;0.80;;
21326;SDS011;10822;51.532;6.770;2022-11-15T12:50:39;1.52;;;0.80;;
21326;SDS011;10822;51.532;6.770;2022-11-15T13:12:02;2.20;;;0.77;;
21326;SDS011;10822;51.532;6.770;2022-11-15T13:14:48;1.65;;;0.68;;
21326;SDS011;10822;51.532;6.770;2022-11-15T13:30:40;4.30;;;0.70;;
21326;SDS011;10822;51.532;6.770;2022-11-15T13:33:15;1.17;;;0.40;;
21326;SDS011;10822;51.532;6.770;2022-11-15T13:35:42;2.22;;;0.63;;
21326;SDS011;10822;51.532;6.770;2022-11-15T13:38:17;3.13;;;0.77;;
21326;SDS011;10822;51.532;6.770;2022-11-15T13:40:44;2.33;;;0.60;;
21326;SDS011;10822;51.532;6.770;2022-11-15T13:43:17;3.92;;;0.47;;
21326;SDS011;10822;51.532;6.770;2022-11-15T13:45:43;0.68;;;0.55;;
21326;SDS011;10822;51.532;6.770;2022-11-15T13:48:09;2.42;;;0.77;;
21326;SDS011;10822;51.532;6.770;2022-11-15T13:50:36;2.63;;;0.77;;
21326;SDS011;10822;51.532;6.770;2022-11-15T13:53:03;5.40;;;0.75;;
21326;SDS011;10822;51.532;6.770;2022-11-15T13:55:30;3.90;;;0.60;;
21326;SDS011;10822;51.532;6.770;2022-11-15T13:58:04;3.20;;;0.60;;
21326;SDS011;10822;51.532;6.770;2022-11-15T14:00:38;3.03;;;0.80;;
21326;SDS011;10822;51.532;6.770;2022-11-15T14:03:06;2.83;;;0.80;;
21326;SDS011;10822;51.532;6.770;2022-11-15T14:05:33;2.80;;;0.57;;
21326;SDS011;10822;51.532;6.770;2022-11-15T14:08:01;1.80;;;0.70;;
21326;SDS011;10822;51.532;6.770;2022-11-15T14:10:32;4.72;;;0.77;;
21326;SDS011;10822;51.532;6.770;2022-11-15T14:12:59;3.13;;;0.95;;
21326;SDS011;10822;51.532;6.770;2022-11-15T14:17:51;2.72;;;0.60;;
21326;SDS011;10822;51.532;6.770;2022-11-15T14:22:53;3.42;;;1.10;;
21326;SDS011;10822;51.532;6.770;2022-11-15T14:25:23;4.80;;;0.90;;
21326;SDS011;10822;51.532;6.770;2022-11-15T14:28:09;2.90;;;0.70;;
21326;SDS011;10822;51.532;6.770;2022-11-15T14:30:36;2.05;;;0.80;;
21326;SDS011;10822;51.532;6.770;2022-11-15T14:33:11;1.92;;;0.73;;
21326;SDS011;10822;51.532;6.770;2022-11-15T14:35:40;2.63;;;0.85;;
21326;SDS011;10822;51.532;6.770;2022-11-15T14:38:07;1.85;;;0.90;;
21326;SDS011;10822;51.532;6.770;2022-11-15T14:40:33;4.00;;;1.00;;
21326;SDS011;10822;51.532;6.770;2022-11-15T14:42:59;2.22;;;1.05;;
21326;SDS011;10822;51.532;6.770;2022-11-15T14:45:26;6.85;;;2.92;;
21326;SDS011;10822;51.532;6.770;2022-11-15T14:47:52;2.35;;;1.08;;
21326;SDS011;10822;51.532;6.770;2022-11-15T14:50:19;3.33;;;0.90;;
21326;SDS011;10822;51.532;6.770;2022-11-15T14:52:45;1.98;;;0.98;;
21326;SDS011;10822;51.532;6.770;2022-11-15T14:55:16;3.13;;;1.70;;
21326;SDS011;10822;51.532;6.770;2022-11-15T14:57:43;2.38;;;1.20;;
21326;SDS011;10822;51.532;6.770;2022-11-15T15:00:10;3.33;;;1.27;;
21326;SDS011;10822;51.532;6.770;2022-11-15T15:02:36;1.70;;;0.90;;
21326;SDS011;10822;51.532;6.770;2022-11-15T15:05:11;2.22;;;1.00;;
21326;SDS011;10822;51.532;6.770;2022-11-15T15:07:38;5.95;;;0.90;;
21326;SDS011;10822;51.532;6.770;2022-11-15T15:10:04;1.90;;;1.08;;
21326;SDS011;10822;51.532;6.770;2022-11-15T15:12:30;2.92;;;1.00;;
21326;SDS011;10822;51.532;6.770;2022-11-15T15:14:56;1.77;;;1.00;;
21326;SDS011;10822;51.532;6.770;2022-11-15T15:17:22;2.55;;;0.90;;
21326;SDS011;10822;51.532;6.770;2022-11-15T15:19:48;1.83;;;0.90;;
21326;SDS011;10822;51.532;6.770;2022-11-15T15:22:15;1.77;;;0.90;;
21326;SDS011;10822;51.532;6.770;2022-11-15T15:24:42;4.95;;;1.00;;
21326;SDS011;10822;51.532;6.770;2022-11-15T15:27:08;2.30;;;1.10;;
21326;SDS011;10822;51.532;6.770;2022-11-15T15:29:34;1.90;;;1.15;;
21326;SDS011;10822;51.532;6.770;2022-11-15T15:32:00;1.48;;;1.00;;
21326;SDS011;10822;51.532;6.770;2022-11-15T15:34:26;2.65;;;1.20;;
21326;SDS011;10822;51.532;6.770;2022-11-15T15:39:34;4.57;;;1.35;;
21326;SDS011;10822;51.532;6.770;2022-11-15T15:42:00;2.35;;;1.33;;
21326;SDS011;10822;51.532;6.770;2022-11-15T15:44:26;5.05;;;1.52;;
21326;SDS011;10822;51.532;6.770;2022-11-15T15:46:51;2.42;;;1.27;;
21326;SDS011;10822;51.532;6.770;2022-11-15T15:49:17;3.45;;;1.30;;
21326;SDS011;10822;51.532;6.770;2022-11-15T15:51:43;2.67;;;1.48;;
21326;SDS011;10822;51.532;6.770;2022-11-15T15:54:09;4.75;;;1.63;;
21326;SDS011;10822;51.532;6.770;2022-11-15T15:56:35;2.00;;;1.13;;
21326;SDS011;10822;51.532;6.770;2022-11-15T15:59:01;4.45;;;1.40;;
21326;SDS011;10822;51.532;6.770;2022-11-15T16:01:27;3.58;;;1.33;;
21326;SDS011;10822;51.532;6.770;2022-11-15T16:03:53;2.25;;;1.50;;
21326;SDS011;10822;51.532;6.770;2022-11-15T16:06:25;3.55;;;1.48;;
21326;SDS011;10822;51.532;6.770;2022-11-15T16:08:56;4.55;;;1.50;;
21326;SDS011;10822;51.532;6.770;2022-11-15T16:11:22;5.45;;;1.80;;
21326;SDS011;10822;51.532;6.770;2022-11-15T16:13:48;4.38;;;1.50;;
21326;SDS011;10822;51.532;6.770;2022-11-15T16:16:14;2.28;;;1.60;;
21326;SDS011;10822;51.532;6.770;2022-11-15T16:18:40;3.33;;;1.45;;
21326;SDS011;10822;51.532;6.770;2022-11-15T16:26:21;2.65;;;1.85;;
21326;SDS011;10822;51.532;6.770;2022-11-15T16:28:47;2.78;;;1.85;;
21326;SDS011;10822;51.532;6.770;2022-11-15T16:31:13;3.88;;;2.10;;
21326;SDS011;10822;51.532;6.770;2022-11-15T16:33:41;3.03;;;1.50;;
21326;SDS011;10822;51.532;6.770;2022-11-15T16:36:24;2.65;;;1.30;;
21326;SDS011;10822;51.532;6.770;2022-11-15T16:41:26;2.78;;;1.38;;
21326;SDS011;10822;51.532;6.770;2022-11-15T16:43:52;3.72;;;1.50;;
21326;SDS011;10822;51.532;6.770;2022-11-15T16:46:19;4.63;;;1.40;;
21326;SDS011;10822;51.532;6.770;2022-11-15T16:48:46;3.28;;;1.42;;
21326;SDS011;10822;51.532;6.770;2022-11-15T16:51:12;2.35;;;1.42;;
21326;SDS011;10822;51.532;6.770;2022-11-15T16:53:38;2.38;;;1.38;;
21326;SDS011;10822;51.532;6.770;2022-11-15T16:56:12;6.30;;;1.50;;
21326;SDS011;10822;51.532;6.770;2022-11-15T16:58:39;2.88;;;1.40;;
21326;SDS011;10822;51.532;6.770;2022-11-15T17:01:10;2.42;;;1.35;;
21326;SDS011;10822;51.532;6.770;2022-11-15T17:03:40;2.60;;;1.42;;
21326;SDS011;10822;51.532;6.770;2022-11-15T17:06:07;4.05;;;1.60;;
21326;SDS011;10822;51.532;6.770;2022-11-15T17:08:33;3.05;;;1.77;;
21326;SDS011;10822;51.532;6.770;2022-11-15T17:10:59;5.00;;;1.63;;
21326;SDS011;10822;51.532;6.770;2022-11-15T17:13:25;3.50;;;1.50;;
21326;SDS011;10822;51.532;6.770;2022-11-15T17:16:01;3.03;;;1.73;;
21326;SDS011;10822;51.532;6.770;2022-11-15T17:18:27;3.78;;;1.95;;